Links & Downloads

Hier präsentieren wir eine Auswahl wichtiger Downloads und interessanter Internetseiten. Wir versuchen, diese Seite immer auf aktuellem Stand zu halten.

Dokumente & Programme

  FluPP, ein kostenloses Flugbuch für Windows, mit dem man seine Flüge (Segelflug, Ultraleicht, Motorsegler, Motorflug...) verwalten kann
 
OLC - Segelflugszene

  Alle Streckenflüge des VfS |   Streckenflüge ab Krefeld |   Landesliga - Tabelle

Wetter


METAR / TAF Düsseldorf

[Quelle: ADDS]
METAR
EDDL 172120Z 21008KT 9999 FEW025 19/17 Q1015 NOSIG =
TAF
EDDL 171700Z 1718/1824 22010KT 9999 BKN030 BECMG 1720/1723 16008KT BECMG 1804/1806 RA TEMPO 1806/1811 3000 +SHRA BKN009TCU BECMG 1807/1810 22012KT BECMG 1812/1815 NSW BECMG 1817/1820 22007KT =
SR / SS: 04:23 / 18:50 UTC ( 2017-08-17)

Luftsportportale

Verbände

Behörden

 
Bundesamt für Naturschutz:
Gebiete mit Vogelvorkommen mit besonderer Luftfahrtrelevanz (Aircraft relevant Bird Area)
1.   Allgemein
2.   Niederrhein

Fliegerärzte

Webshops

Vereinsflieger